sensor_id;sensor_type;location;lat;lon;timestamp;P1;durP1;ratioP1;P2;durP2;ratioP2
7493;SDS011;3788;49.902;8.590;2023-04-01T00:00:36;3.10;;;1.30;;
7493;SDS011;3788;49.902;8.590;2023-04-01T00:03:02;2.10;;;1.00;;
7493;SDS011;3788;49.902;8.590;2023-04-01T00:05:29;4.10;;;1.23;;
7493;SDS011;3788;49.902;8.590;2023-04-01T00:07:56;4.63;;;1.07;;
7493;SDS011;3788;49.902;8.590;2023-04-01T00:10:23;1.90;;;1.50;;
7493;SDS011;3788;49.902;8.590;2023-04-01T00:12:50;3.50;;;1.20;;
7493;SDS011;3788;49.902;8.590;2023-04-01T00:15:16;3.60;;;1.67;;
7493;SDS011;3788;49.902;8.590;2023-04-01T00:17:45;4.40;;;1.30;;
7493;SDS011;3788;49.902;8.590;2023-04-01T00:20:11;2.33;;;0.97;;
7493;SDS011;3788;49.902;8.590;2023-04-01T00:22:39;2.07;;;1.37;;
7493;SDS011;3788;49.902;8.590;2023-04-01T00:25:06;1.80;;;1.00;;
7493;SDS011;3788;49.902;8.590;2023-04-01T00:27:33;2.20;;;1.03;;
7493;SDS011;3788;49.902;8.590;2023-04-01T00:30:00;2.93;;;1.17;;
7493;SDS011;3788;49.902;8.590;2023-04-01T00:32:27;3.37;;;1.03;;
7493;SDS011;3788;49.902;8.590;2023-04-01T00:34:56;2.70;;;1.10;;
7493;SDS011;3788;49.902;8.590;2023-04-01T00:37:24;2.50;;;1.47;;
7493;SDS011;3788;49.902;8.590;2023-04-01T00:39:51;4.80;;;1.20;;
7493;SDS011;3788;49.902;8.590;2023-04-01T00:42:18;3.20;;;1.30;;
7493;SDS011;3788;49.902;8.590;2023-04-01T00:44:45;5.67;;;1.43;;
7493;SDS011;3788;49.902;8.590;2023-04-01T00:47:15;2.90;;;0.97;;
7493;SDS011;3788;49.902;8.590;2023-04-01T00:49:43;2.37;;;1.13;;
7493;SDS011;3788;49.902;8.590;2023-04-01T00:52:16;4.43;;;1.20;;
7493;SDS011;3788;49.902;8.590;2023-04-01T00:54:45;1.47;;;0.90;;
7493;SDS011;3788;49.902;8.590;2023-04-01T00:57:14;4.57;;;1.10;;
7493;SDS011;3788;49.902;8.590;2023-04-01T00:59:46;4.97;;;1.47;;
7493;SDS011;3788;49.902;8.590;2023-04-01T01:02:15;2.47;;;1.23;;
7493;SDS011;3788;49.902;8.590;2023-04-01T01:04:42;4.33;;;1.03;;
7493;SDS011;3788;49.902;8.590;2023-04-01T01:07:12;2.70;;;0.90;;
7493;SDS011;3788;49.902;8.590;2023-04-01T01:09:47;2.67;;;1.23;;
7493;SDS011;3788;49.902;8.590;2023-04-01T01:12:22;2.53;;;1.10;;
7493;SDS011;3788;49.902;8.590;2023-04-01T01:14:56;2.97;;;1.27;;
7493;SDS011;3788;49.902;8.590;2023-04-01T01:17:32;1.43;;;1.20;;
7493;SDS011;3788;49.902;8.590;2023-04-01T01:20:19;3.53;;;0.87;;
7493;SDS011;3788;49.902;8.590;2023-04-01T01:26:18;1.80;;;1.20;;
7493;SDS011;3788;49.902;8.590;2023-04-01T01:29:02;2.83;;;1.17;;
7493;SDS011;3788;49.902;8.590;2023-04-01T01:31:41;3.70;;;1.10;;
7493;SDS011;3788;49.902;8.590;2023-04-01T01:34:17;1.30;;;1.03;;
7493;SDS011;3788;49.902;8.590;2023-04-01T01:36:52;1.93;;;1.00;;
7493;SDS011;3788;49.902;8.590;2023-04-01T01:39:22;2.80;;;1.00;;
7493;SDS011;3788;49.902;8.590;2023-04-01T01:41:54;3.20;;;1.00;;
7493;SDS011;3788;49.902;8.590;2023-04-01T01:44:23;2.00;;;1.03;;
7493;SDS011;3788;49.902;8.590;2023-04-01T01:46:51;2.00;;;1.13;;
7493;SDS011;3788;49.902;8.590;2023-04-01T01:49:18;4.13;;;1.50;;
7493;SDS011;3788;49.902;8.590;2023-04-01T01:51:45;5.63;;;1.37;;
7493;SDS011;3788;49.902;8.590;2023-04-01T01:54:14;6.90;;;1.53;;
7493;SDS011;3788;49.902;8.590;2023-04-01T01:56:44;3.37;;;1.33;;
7493;SDS011;3788;49.902;8.590;2023-04-01T01:59:14;2.17;;;1.00;;
7493;SDS011;3788;49.902;8.590;2023-04-01T02:01:44;2.23;;;0.83;;
7493;SDS011;3788;49.902;8.590;2023-04-01T02:04:14;6.53;;;1.60;;
7493;SDS011;3788;49.902;8.590;2023-04-01T02:06:44;3.17;;;1.03;;
7493;SDS011;3788;49.902;8.590;2023-04-01T02:09:18;3.27;;;1.00;;
7493;SDS011;3788;49.902;8.590;2023-04-01T02:11:47;3.17;;;1.30;;
7493;SDS011;3788;49.902;8.590;2023-04-01T02:14:17;2.03;;;0.97;;
7493;SDS011;3788;49.902;8.590;2023-04-01T02:16:47;3.93;;;1.30;;
7493;SDS011;3788;49.902;8.590;2023-04-01T02:19:18;3.33;;;1.10;;
7493;SDS011;3788;49.902;8.590;2023-04-01T02:21:48;2.23;;;0.97;;
7493;SDS011;3788;49.902;8.590;2023-04-01T02:24:16;2.00;;;1.00;;
7493;SDS011;3788;49.902;8.590;2023-04-01T02:26:47;2.63;;;1.00;;
7493;SDS011;3788;49.902;8.590;2023-04-01T02:29:16;4.83;;;1.57;;
7493;SDS011;3788;49.902;8.590;2023-04-01T02:31:46;1.30;;;0.97;;
7493;SDS011;3788;49.902;8.590;2023-04-01T02:34:13;5.67;;;1.20;;
7493;SDS011;3788;49.902;8.590;2023-04-01T02:36:40;2.23;;;0.90;;
7493;SDS011;3788;49.902;8.590;2023-04-01T02:39:08;4.73;;;1.73;;
7493;SDS011;3788;49.902;8.590;2023-04-01T02:41:39;1.03;;;0.80;;
7493;SDS011;3788;49.902;8.590;2023-04-01T02:44:07;1.40;;;1.13;;
7493;SDS011;3788;49.902;8.590;2023-04-01T02:46:35;3.37;;;0.90;;
7493;SDS011;3788;49.902;8.590;2023-04-01T02:49:02;3.73;;;1.10;;
7493;SDS011;3788;49.902;8.590;2023-04-01T02:51:29;4.80;;;1.30;;
7493;SDS011;3788;49.902;8.590;2023-04-01T02:53:55;2.00;;;0.80;;
7493;SDS011;3788;49.902;8.590;2023-04-01T02:56:22;2.30;;;0.90;;
7493;SDS011;3788;49.902;8.590;2023-04-01T02:58:50;3.73;;;1.10;;
7493;SDS011;3788;49.902;8.590;2023-04-01T03:01:17;1.03;;;0.87;;
7493;SDS011;3788;49.902;8.590;2023-04-01T03:03:44;2.73;;;1.30;;
7493;SDS011;3788;49.902;8.590;2023-04-01T03:06:12;2.57;;;1.20;;
7493;SDS011;3788;49.902;8.590;2023-04-01T03:08:40;2.63;;;1.10;;
7493;SDS011;3788;49.902;8.590;2023-04-01T03:11:08;4.83;;;1.57;;
7493;SDS011;3788;49.902;8.590;2023-04-01T03:13:35;2.03;;;1.10;;
7493;SDS011;3788;49.902;8.590;2023-04-01T03:16:04;1.70;;;0.87;;
7493;SDS011;3788;49.902;8.590;2023-04-01T03:18:31;3.80;;;1.20;;
7493;SDS011;3788;49.902;8.590;2023-04-01T03:21:11;2.17;;;1.20;;
7493;SDS011;3788;49.902;8.590;2023-04-01T03:23:39;3.60;;;1.10;;
7493;SDS011;3788;49.902;8.590;2023-04-01T03:26:06;3.03;;;1.10;;
7493;SDS011;3788;49.902;8.590;2023-04-01T03:28:32;2.73;;;1.00;;
7493;SDS011;3788;49.902;8.590;2023-04-01T03:30:59;2.40;;;1.30;;
7493;SDS011;3788;49.902;8.590;2023-04-01T03:33:27;2.43;;;1.00;;
7493;SDS011;3788;49.902;8.590;2023-04-01T03:35:54;1.70;;;1.10;;
7493;SDS011;3788;49.902;8.590;2023-04-01T03:38:21;3.20;;;1.20;;
7493;SDS011;3788;49.902;8.590;2023-04-01T03:40:48;2.27;;;1.40;;
7493;SDS011;3788;49.902;8.590;2023-04-01T03:43:14;1.87;;;1.00;;
7493;SDS011;3788;49.902;8.590;2023-04-01T03:45:43;1.63;;;1.17;;
7493;SDS011;3788;49.902;8.590;2023-04-01T03:48:10;3.33;;;1.10;;
7493;SDS011;3788;49.902;8.590;2023-04-01T03:50:38;2.83;;;1.20;;
7493;SDS011;3788;49.902;8.590;2023-04-01T03:53:05;2.37;;;0.90;;
7493;SDS011;3788;49.902;8.590;2023-04-01T03:55:32;3.37;;;0.87;;
7493;SDS011;3788;49.902;8.590;2023-04-01T03:57:59;2.27;;;1.20;;
7493;SDS011;3788;49.902;8.590;2023-04-01T04:00:27;3.90;;;1.30;;
7493;SDS011;3788;49.902;8.590;2023-04-01T04:02:55;2.33;;;1.13;;
7493;SDS011;3788;49.902;8.590;2023-04-01T04:05:21;3.93;;;1.10;;
7493;SDS011;3788;49.902;8.590;2023-04-01T04:07:50;0.93;;;0.83;;
7493;SDS011;3788;49.902;8.590;2023-04-01T04:10:18;1.93;;;1.10;;
7493;SDS011;3788;49.902;8.590;2023-04-01T04:12:45;4.10;;;0.80;;
7493;SDS011;3788;49.902;8.590;2023-04-01T04:15:12;4.00;;;1.07;;
7493;SDS011;3788;49.902;8.590;2023-04-01T04:17:39;4.17;;;1.57;;
7493;SDS011;3788;49.902;8.590;2023-04-01T04:20:06;2.40;;;1.00;;
7493;SDS011;3788;49.902;8.590;2023-04-01T04:22:34;4.03;;;1.07;;
7493;SDS011;3788;49.902;8.590;2023-04-01T04:25:02;2.33;;;0.90;;
7493;SDS011;3788;49.902;8.590;2023-04-01T04:27:30;4.47;;;1.03;;
7493;SDS011;3788;49.902;8.590;2023-04-01T04:29:56;1.27;;;0.80;;
7493;SDS011;3788;49.902;8.590;2023-04-01T04:32:23;2.67;;;1.00;;
7493;SDS011;3788;49.902;8.590;2023-04-01T04:34:50;1.97;;;1.10;;
7493;SDS011;3788;49.902;8.590;2023-04-01T04:37:17;2.70;;;1.13;;
7493;SDS011;3788;49.902;8.590;2023-04-01T04:39:43;1.43;;;1.23;;
7493;SDS011;3788;49.902;8.590;2023-04-01T04:42:11;1.33;;;0.90;;
7493;SDS011;3788;49.902;8.590;2023-04-01T04:44:38;2.77;;;1.00;;
7493;SDS011;3788;49.902;8.590;2023-04-01T04:47:05;4.37;;;1.00;;
7493;SDS011;3788;49.902;8.590;2023-04-01T04:49:32;3.40;;;1.30;;
7493;SDS011;3788;49.902;8.590;2023-04-01T04:51:59;2.17;;;1.07;;
7493;SDS011;3788;49.902;8.590;2023-04-01T04:54:25;0.83;;;0.80;;
7493;SDS011;3788;49.902;8.590;2023-04-01T04:56:53;2.70;;;0.87;;
7493;SDS011;3788;49.902;8.590;2023-04-01T04:59:22;2.37;;;0.90;;
7493;SDS011;3788;49.902;8.590;2023-04-01T05:01:48;2.17;;;1.03;;
7493;SDS011;3788;49.902;8.590;2023-04-01T05:04:15;1.53;;;0.93;;
7493;SDS011;3788;49.902;8.590;2023-04-01T05:06:42;2.13;;;1.03;;
7493;SDS011;3788;49.902;8.590;2023-04-01T05:09:10;2.23;;;1.10;;
7493;SDS011;3788;49.902;8.590;2023-04-01T05:11:37;2.97;;;1.27;;
7493;SDS011;3788;49.902;8.590;2023-04-01T05:14:03;3.73;;;1.20;;
7493;SDS011;3788;49.902;8.590;2023-04-01T05:16:31;2.27;;;0.80;;
7493;SDS011;3788;49.902;8.590;2023-04-01T05:18:58;2.17;;;1.13;;
7493;SDS011;3788;49.902;8.590;2023-04-01T05:21:25;3.00;;;0.87;;
7493;SDS011;3788;49.902;8.590;2023-04-01T05:23:52;3.20;;;1.13;;
7493;SDS011;3788;49.902;8.590;2023-04-01T05:26:18;3.47;;;1.00;;
7493;SDS011;3788;49.902;8.590;2023-04-01T05:28:45;2.47;;;1.17;;
7493;SDS011;3788;49.902;8.590;2023-04-01T05:31:12;2.07;;;1.03;;
7493;SDS011;3788;49.902;8.590;2023-04-01T05:33:40;2.83;;;1.17;;
7493;SDS011;3788;49.902;8.590;2023-04-01T05:36:08;2.27;;;1.20;;
7493;SDS011;3788;49.902;8.590;2023-04-01T05:38:36;3.70;;;1.30;;
7493;SDS011;3788;49.902;8.590;2023-04-01T05:41:03;3.23;;;0.90;;
7493;SDS011;3788;49.902;8.590;2023-04-01T05:43:30;2.13;;;1.00;;
7493;SDS011;3788;49.902;8.590;2023-04-01T05:45:57;2.03;;;0.90;;
7493;SDS011;3788;49.902;8.590;2023-04-01T05:48:24;2.17;;;1.20;;
7493;SDS011;3788;49.902;8.590;2023-04-01T05:50:52;3.93;;;0.93;;
7493;SDS011;3788;49.902;8.590;2023-04-01T05:53:19;2.67;;;1.20;;
7493;SDS011;3788;49.902;8.590;2023-04-01T05:55:47;2.70;;;1.20;;
7493;SDS011;3788;49.902;8.590;2023-04-01T05:58:14;2.40;;;1.00;;
7493;SDS011;3788;49.902;8.590;2023-04-01T06:00:49;2.23;;;0.90;;
7493;SDS011;3788;49.902;8.590;2023-04-01T06:03:16;1.30;;;0.90;;
7493;SDS011;3788;49.902;8.590;2023-04-01T06:05:43;1.07;;;0.80;;
7493;SDS011;3788;49.902;8.590;2023-04-01T06:08:12;2.10;;;0.80;;
7493;SDS011;3788;49.902;8.590;2023-04-01T06:10:53;3.57;;;1.20;;
7493;SDS011;3788;49.902;8.590;2023-04-01T06:13:32;2.90;;;1.00;;
7493;SDS011;3788;49.902;8.590;2023-04-01T06:16:10;3.20;;;0.93;;
7493;SDS011;3788;49.902;8.590;2023-04-01T06:18:50;1.63;;;0.80;;
7493;SDS011;3788;49.902;8.590;2023-04-01T06:21:34;1.37;;;0.90;;
7493;SDS011;3788;49.902;8.590;2023-04-01T06:24:19;1.17;;;0.90;;
7493;SDS011;3788;49.902;8.590;2023-04-01T06:26:55;1.43;;;0.80;;
7493;SDS011;3788;49.902;8.590;2023-04-01T06:29:35;4.27;;;1.10;;
7493;SDS011;3788;49.902;8.590;2023-04-01T06:35:16;1.30;;;0.90;;
7493;SDS011;3788;49.902;8.590;2023-04-01T06:37:54;3.23;;;1.30;;
7493;SDS011;3788;49.902;8.590;2023-04-01T06:40:46;4.23;;;1.17;;
7493;SDS011;3788;49.902;8.590;2023-04-01T06:43:25;1.30;;;0.80;;
7493;SDS011;3788;49.902;8.590;2023-04-01T06:45:59;2.40;;;1.40;;
7493;SDS011;3788;49.902;8.590;2023-04-01T06:48:38;1.73;;;0.70;;
7493;SDS011;3788;49.902;8.590;2023-04-01T06:51:19;3.17;;;0.80;;
7493;SDS011;3788;49.902;8.590;2023-04-01T06:53:56;1.50;;;0.90;;
7493;SDS011;3788;49.902;8.590;2023-04-01T06:56:31;1.07;;;0.70;;
7493;SDS011;3788;49.902;8.590;2023-04-01T06:58:59;0.93;;;0.80;;
7493;SDS011;3788;49.902;8.590;2023-04-01T07:01:32;2.53;;;0.73;;
7493;SDS011;3788;49.902;8.590;2023-04-01T07:04:05;3.53;;;0.87;;
7493;SDS011;3788;49.902;8.590;2023-04-01T07:06:36;0.80;;;0.80;;
7493;SDS011;3788;49.902;8.590;2023-04-01T07:09:09;0.93;;;0.70;;
7493;SDS011;3788;49.902;8.590;2023-04-01T07:11:41;1.00;;;0.90;;
7493;SDS011;3788;49.902;8.590;2023-04-01T07:14:10;0.90;;;0.77;;
7493;SDS011;3788;49.902;8.590;2023-04-01T07:16:43;4.53;;;0.70;;
7493;SDS011;3788;49.902;8.590;2023-04-01T07:19:16;1.13;;;0.73;;
7493;SDS011;3788;49.902;8.590;2023-04-01T07:21:48;1.83;;;0.80;;
7493;SDS011;3788;49.902;8.590;2023-04-01T07:24:20;0.60;;;0.60;;
7493;SDS011;3788;49.902;8.590;2023-04-01T07:26:52;0.87;;;0.80;;
7493;SDS011;3788;49.902;8.590;2023-04-01T07:29:20;0.73;;;0.70;;
7493;SDS011;3788;49.902;8.590;2023-04-01T07:34:55;1.20;;;0.60;;
7493;SDS011;3788;49.902;8.590;2023-04-01T07:37:31;0.97;;;0.70;;
7493;SDS011;3788;49.902;8.590;2023-04-01T07:40:07;1.27;;;0.80;;
7493;SDS011;3788;49.902;8.590;2023-04-01T07:42:50;1.07;;;0.67;;
7493;SDS011;3788;49.902;8.590;2023-04-01T07:45:29;0.97;;;0.87;;
7493;SDS011;3788;49.902;8.590;2023-04-01T07:48:04;1.07;;;0.80;;
7493;SDS011;3788;49.902;8.590;2023-04-01T07:50:41;0.80;;;0.80;;
7493;SDS011;3788;49.902;8.590;2023-04-01T07:53:14;1.73;;;0.70;;
7493;SDS011;3788;49.902;8.590;2023-04-01T07:55:51;0.60;;;0.60;;
7493;SDS011;3788;49.902;8.590;2023-04-01T07:58:28;2.33;;;0.80;;
7493;SDS011;3788;49.902;8.590;2023-04-01T08:01:02;1.13;;;0.70;;
7493;SDS011;3788;49.902;8.590;2023-04-01T08:03:40;2.00;;;0.80;;
7493;SDS011;3788;49.902;8.590;2023-04-01T08:06:19;1.40;;;1.03;;
7493;SDS011;3788;49.902;8.590;2023-04-01T08:08:56;0.87;;;0.77;;
7493;SDS011;3788;49.902;8.590;2023-04-01T08:11:32;1.13;;;0.93;;
7493;SDS011;3788;49.902;8.590;2023-04-01T08:14:11;0.60;;;0.60;;
7493;SDS011;3788;49.902;8.590;2023-04-01T08:16:46;0.77;;;0.60;;
7493;SDS011;3788;49.902;8.590;2023-04-01T08:19:21;0.90;;;0.70;;
7493;SDS011;3788;49.902;8.590;2023-04-01T08:21:57;0.70;;;0.70;;
7493;SDS011;3788;49.902;8.590;2023-04-01T08:24:32;1.30;;;0.67;;
7493;SDS011;3788;49.902;8.590;2023-04-01T08:27:03;0.63;;;0.63;;
7493;SDS011;3788;49.902;8.590;2023-04-01T08:29:41;1.40;;;0.60;;
7493;SDS011;3788;49.902;8.590;2023-04-01T08:32:17;1.37;;;0.70;;
7493;SDS011;3788;49.902;8.590;2023-04-01T08:34:50;1.90;;;0.60;;
7493;SDS011;3788;49.902;8.590;2023-04-01T08:37:22;2.27;;;0.80;;
7493;SDS011;3788;49.902;8.590;2023-04-01T08:39:52;1.40;;;0.60;;
7493;SDS011;3788;49.902;8.590;2023-04-01T08:42:27;2.07;;;0.63;;
7493;SDS011;3788;49.902;8.590;2023-04-01T08:45:12;0.67;;;0.50;;
7493;SDS011;3788;49.902;8.590;2023-04-01T08:47:54;0.50;;;0.50;;
7493;SDS011;3788;49.902;8.590;2023-04-01T08:50:50;0.80;;;0.80;;
7493;SDS011;3788;49.902;8.590;2023-04-01T08:53:58;1.50;;;1.00;;
7493;SDS011;3788;49.902;8.590;2023-04-01T08:56:37;0.93;;;0.60;;
7493;SDS011;3788;49.902;8.590;2023-04-01T08:59:31;0.87;;;0.50;;
7493;SDS011;3788;49.902;8.590;2023-04-01T09:02:25;1.13;;;0.60;;
7493;SDS011;3788;49.902;8.590;2023-04-01T09:05:16;0.60;;;0.60;;
7493;SDS011;3788;49.902;8.590;2023-04-01T09:08:17;1.43;;;0.67;;
7493;SDS011;3788;49.902;8.590;2023-04-01T09:11:04;0.80;;;0.80;;
7493;SDS011;3788;49.902;8.590;2023-04-01T09:13:42;1.17;;;0.80;;
7493;SDS011;3788;49.902;8.590;2023-04-01T09:16:22;1.23;;;1.00;;
7493;SDS011;3788;49.902;8.590;2023-04-01T09:19:07;1.33;;;1.00;;
7493;SDS011;3788;49.902;8.590;2023-04-01T09:21:46;0.80;;;0.53;;
7493;SDS011;3788;49.902;8.590;2023-04-01T09:27:29;0.60;;;0.60;;
7493;SDS011;3788;49.902;8.590;2023-04-01T09:30:07;0.57;;;0.57;;
7493;SDS011;3788;49.902;8.590;2023-04-01T09:33:12;0.80;;;0.80;;
7493;SDS011;3788;49.902;8.590;2023-04-01T09:36:00;0.80;;;0.80;;
7493;SDS011;3788;49.902;8.590;2023-04-01T09:38:36;0.73;;;0.57;;
7493;SDS011;3788;49.902;8.590;2023-04-01T09:41:17;0.60;;;0.60;;
7493;SDS011;3788;49.902;8.590;2023-04-01T09:43:57;0.60;;;0.60;;
7493;SDS011;3788;49.902;8.590;2023-04-01T09:46:31;0.50;;;0.50;;
7493;SDS011;3788;49.902;8.590;2023-04-01T09:52:23;0.97;;;0.73;;
7493;SDS011;3788;49.902;8.590;2023-04-01T10:01:19;0.80;;;0.50;;
7493;SDS011;3788;49.902;8.590;2023-04-01T10:04:29;0.60;;;0.60;;
7493;SDS011;3788;49.902;8.590;2023-04-01T10:07:38;1.10;;;0.50;;
7493;SDS011;3788;49.902;8.590;2023-04-01T10:26:25;1.20;;;1.10;;
7493;SDS011;3788;49.902;8.590;2023-04-01T10:29:16;0.50;;;0.50;;
7493;SDS011;3788;49.902;8.590;2023-04-01T10:32:05;0.70;;;0.70;;
7493;SDS011;3788;49.902;8.590;2023-04-01T10:35:15;1.63;;;0.60;;
7493;SDS011;3788;49.902;8.590;2023-04-01T10:38:15;1.53;;;0.93;;
7493;SDS011;3788;49.902;8.590;2023-04-01T10:47:14;1.53;;;0.80;;
7493;SDS011;3788;49.902;8.590;2023-04-01T10:50:24;0.60;;;0.60;;
7493;SDS011;3788;49.902;8.590;2023-04-01T10:59:17;0.60;;;0.60;;
7493;SDS011;3788;49.902;8.590;2023-04-01T11:02:20;0.70;;;0.60;;
7493;SDS011;3788;49.902;8.590;2023-04-01T11:05:34;1.27;;;0.70;;
7493;SDS011;3788;49.902;8.590;2023-04-01T11:08:39;0.60;;;0.60;;
7493;SDS011;3788;49.902;8.590;2023-04-01T11:11:48;0.60;;;0.60;;
7493;SDS011;3788;49.902;8.590;2023-04-01T11:17:42;0.67;;;0.67;;
7493;SDS011;3788;49.902;8.590;2023-04-01T11:20:57;0.60;;;0.60;;
7493;SDS011;3788;49.902;8.590;2023-04-01T11:24:00;0.60;;;0.60;;
7493;SDS011;3788;49.902;8.590;2023-04-01T11:26:43;1.33;;;0.73;;
7493;SDS011;3788;49.902;8.590;2023-04-01T11:29:30;2.37;;;1.10;;
7493;SDS011;3788;49.902;8.590;2023-04-01T11:32:23;0.70;;;0.70;;
7493;SDS011;3788;49.902;8.590;2023-04-01T11:35:00;0.60;;;0.60;;
7493;SDS011;3788;49.902;8.590;2023-04-01T11:37:41;1.00;;;0.70;;
7493;SDS011;3788;49.902;8.590;2023-04-01T11:40:18;2.10;;;0.70;;
7493;SDS011;3788;49.902;8.590;2023-04-01T11:42:54;0.80;;;0.80;;
7493;SDS011;3788;49.902;8.590;2023-04-01T11:45:32;0.70;;;0.70;;
7493;SDS011;3788;49.902;8.590;2023-04-01T11:48:26;1.53;;;0.90;;
7493;SDS011;3788;49.902;8.590;2023-04-01T11:51:07;0.77;;;0.67;;
7493;SDS011;3788;49.902;8.590;2023-04-01T11:53:47;0.73;;;0.73;;
7493;SDS011;3788;49.902;8.590;2023-04-01T11:56:37;0.60;;;0.60;;
7493;SDS011;3788;49.902;8.590;2023-04-01T11:59:30;0.73;;;0.73;;
7493;SDS011;3788;49.902;8.590;2023-04-01T12:02:16;1.77;;;0.60;;
7493;SDS011;3788;49.902;8.590;2023-04-01T12:04:56;0.60;;;0.60;;
7493;SDS011;3788;49.902;8.590;2023-04-01T12:07:40;0.53;;;0.53;;
7493;SDS011;3788;49.902;8.590;2023-04-01T12:10:18;1.20;;;0.70;;
7493;SDS011;3788;49.902;8.590;2023-04-01T12:12:48;1.33;;;0.70;;
7493;SDS011;3788;49.902;8.590;2023-04-01T12:15:23;0.60;;;0.60;;
7493;SDS011;3788;49.902;8.590;2023-04-01T12:18:00;0.50;;;0.50;;
7493;SDS011;3788;49.902;8.590;2023-04-01T12:20:40;0.50;;;0.50;;
7493;SDS011;3788;49.902;8.590;2023-04-01T12:23:18;0.60;;;0.60;;
7493;SDS011;3788;49.902;8.590;2023-04-01T12:26:08;0.63;;;0.63;;
7493;SDS011;3788;49.902;8.590;2023-04-01T12:28:54;0.50;;;0.50;;
7493;SDS011;3788;49.902;8.590;2023-04-01T12:31:36;0.80;;;0.80;;
7493;SDS011;3788;49.902;8.590;2023-04-01T12:34:23;0.60;;;0.60;;
7493;SDS011;3788;49.902;8.590;2023-04-01T12:37:13;0.70;;;0.70;;
7493;SDS011;3788;49.902;8.590;2023-04-01T12:39:52;0.50;;;0.50;;
7493;SDS011;3788;49.902;8.590;2023-04-01T12:45:30;0.63;;;0.63;;
7493;SDS011;3788;49.902;8.590;2023-04-01T12:48:11;0.60;;;0.50;;
7493;SDS011;3788;49.902;8.590;2023-04-01T12:51:20;0.50;;;0.50;;
7493;SDS011;3788;49.902;8.590;2023-04-01T12:54:04;0.50;;;0.50;;
7493;SDS011;3788;49.902;8.590;2023-04-01T12:56:58;0.60;;;0.60;;
7493;SDS011;3788;49.902;8.590;2023-04-01T12:59:41;0.53;;;0.50;;
7493;SDS011;3788;49.902;8.590;2023-04-01T13:02:20;0.70;;;0.50;;
7493;SDS011;3788;49.902;8.590;2023-04-01T13:05:06;0.57;;;0.57;;
7493;SDS011;3788;49.902;8.590;2023-04-01T13:08:03;0.60;;;0.60;;
7493;SDS011;3788;49.902;8.590;2023-04-01T13:13:38;0.60;;;0.60;;
7493;SDS011;3788;49.902;8.590;2023-04-01T13:16:14;0.60;;;0.60;;
7493;SDS011;3788;49.902;8.590;2023-04-01T13:18:52;0.40;;;0.40;;
7493;SDS011;3788;49.902;8.590;2023-04-01T13:21:26;0.50;;;0.50;;
7493;SDS011;3788;49.902;8.590;2023-04-01T13:24:05;0.60;;;0.60;;
7493;SDS011;3788;49.902;8.590;2023-04-01T13:26:47;0.50;;;0.50;;
7493;SDS011;3788;49.902;8.590;2023-04-01T13:29:25;0.70;;;0.40;;
7493;SDS011;3788;49.902;8.590;2023-04-01T13:32:01;1.40;;;0.60;;
7493;SDS011;3788;49.902;8.590;2023-04-01T13:34:45;0.60;;;0.60;;
7493;SDS011;3788;49.902;8.590;2023-04-01T13:37:23;0.53;;;0.53;;
7493;SDS011;3788;49.902;8.590;2023-04-01T13:40:02;0.60;;;0.60;;
7493;SDS011;3788;49.902;8.590;2023-04-01T13:42:43;1.90;;;0.60;;
7493;SDS011;3788;49.902;8.590;2023-04-01T13:45:15;0.60;;;0.60;;
7493;SDS011;3788;49.902;8.590;2023-04-01T13:47:53;0.73;;;0.63;;
7493;SDS011;3788;49.902;8.590;2023-04-01T13:50:46;0.43;;;0.43;;
7493;SDS011;3788;49.902;8.590;2023-04-01T13:56:34;0.70;;;0.60;;
7493;SDS011;3788;49.902;8.590;2023-04-01T14:02:20;0.50;;;0.50;;
7493;SDS011;3788;49.902;8.590;2023-04-01T14:05:13;0.53;;;0.53;;
7493;SDS011;3788;49.902;8.590;2023-04-01T14:07:56;1.50;;;0.60;;
7493;SDS011;3788;49.902;8.590;2023-04-01T14:10:32;0.50;;;0.50;;
7493;SDS011;3788;49.902;8.590;2023-04-01T14:13:06;2.00;;;0.80;;
7493;SDS011;3788;49.902;8.590;2023-04-01T14:15:46;1.23;;;0.70;;
7493;SDS011;3788;49.902;8.590;2023-04-01T14:18:32;0.60;;;0.60;;
7493;SDS011;3788;49.902;8.590;2023-04-01T14:21:13;1.13;;;0.57;;
7493;SDS011;3788;49.902;8.590;2023-04-01T14:24:06;0.60;;;0.60;;
7493;SDS011;3788;49.902;8.590;2023-04-01T14:29:36;0.75;;;0.63;;
7493;SDS011;3788;49.902;8.590;2023-04-01T14:32:11;1.17;;;0.73;;
7493;SDS011;3788;49.902;8.590;2023-04-01T14:34:53;1.47;;;0.70;;
7493;SDS011;3788;49.902;8.590;2023-04-01T14:37:30;0.60;;;0.55;;
7493;SDS011;3788;49.902;8.590;2023-04-01T14:40:16;1.20;;;0.60;;
7493;SDS011;3788;49.902;8.590;2023-04-01T14:43:13;0.87;;;0.50;;
7493;SDS011;3788;49.902;8.590;2023-04-01T14:46:06;0.40;;;0.40;;
7493;SDS011;3788;49.902;8.590;2023-04-01T14:48:50;0.60;;;0.60;;
7493;SDS011;3788;49.902;8.590;2023-04-01T14:51:21;0.40;;;0.40;;
7493;SDS011;3788;49.902;8.590;2023-04-01T14:53:57;0.90;;;0.90;;
7493;SDS011;3788;49.902;8.590;2023-04-01T14:56:35;0.40;;;0.40;;
7493;SDS011;3788;49.902;8.590;2023-04-01T14:59:04;0.70;;;0.50;;
7493;SDS011;3788;49.902;8.590;2023-04-01T15:01:36;0.57;;;0.50;;
7493;SDS011;3788;49.902;8.590;2023-04-01T15:04:17;0.80;;;0.80;;
7493;SDS011;3788;49.902;8.590;2023-04-01T15:07:01;0.80;;;0.80;;
7493;SDS011;3788;49.902;8.590;2023-04-01T15:09:38;0.60;;;0.60;;
7493;SDS011;3788;49.902;8.590;2023-04-01T15:12:17;0.87;;;0.87;;
7493;SDS011;3788;49.902;8.590;2023-04-01T15:20:56;1.40;;;1.30;;
7493;SDS011;3788;49.902;8.590;2023-04-01T15:23:38;0.80;;;0.80;;
7493;SDS011;3788;49.902;8.590;2023-04-01T15:26:17;1.23;;;1.20;;
7493;SDS011;3788;49.902;8.590;2023-04-01T15:28:54;0.90;;;0.90;;
7493;SDS011;3788;49.902;8.590;2023-04-01T15:31:29;0.67;;;0.67;;
7493;SDS011;3788;49.902;8.590;2023-04-01T15:34:06;1.00;;;1.00;;
7493;SDS011;3788;49.902;8.590;2023-04-01T15:36:50;0.87;;;0.70;;
7493;SDS011;3788;49.902;8.590;2023-04-01T15:39:23;0.73;;;0.73;;
7493;SDS011;3788;49.902;8.590;2023-04-01T15:42:04;2.20;;;0.90;;
7493;SDS011;3788;49.902;8.590;2023-04-01T15:44:44;0.70;;;0.70;;
7493;SDS011;3788;49.902;8.590;2023-04-01T15:47:27;1.00;;;1.00;;
7493;SDS011;3788;49.902;8.590;2023-04-01T15:50:21;1.03;;;0.97;;
7493;SDS011;3788;49.902;8.590;2023-04-01T15:53:14;0.93;;;0.80;;
7493;SDS011;3788;49.902;8.590;2023-04-01T15:55:50;0.60;;;0.60;;
7493;SDS011;3788;49.902;8.590;2023-04-01T15:58:28;0.57;;;0.57;;
7493;SDS011;3788;49.902;8.590;2023-04-01T16:01:07;0.83;;;0.80;;
7493;SDS011;3788;49.902;8.590;2023-04-01T16:03:43;0.50;;;0.50;;
7493;SDS011;3788;49.902;8.590;2023-04-01T16:06:23;0.40;;;0.40;;
7493;SDS011;3788;49.902;8.590;2023-04-01T16:12:07;0.80;;;0.60;;
7493;SDS011;3788;49.902;8.590;2023-04-01T16:14:43;0.50;;;0.50;;
7493;SDS011;3788;49.902;8.590;2023-04-01T16:17:31;0.50;;;0.50;;
7493;SDS011;3788;49.902;8.590;2023-04-01T16:20:14;0.90;;;0.70;;
7493;SDS011;3788;49.902;8.590;2023-04-01T16:22:48;1.23;;;0.60;;
7493;SDS011;3788;49.902;8.590;2023-04-01T16:25:25;0.80;;;0.80;;
7493;SDS011;3788;49.902;8.590;2023-04-01T16:28:00;0.50;;;0.50;;
7493;SDS011;3788;49.902;8.590;2023-04-01T16:30:40;1.80;;;0.50;;
7493;SDS011;3788;49.902;8.590;2023-04-01T16:33:13;0.77;;;0.70;;
7493;SDS011;3788;49.902;8.590;2023-04-01T16:35:46;0.80;;;0.80;;
7493;SDS011;3788;49.902;8.590;2023-04-01T16:38:20;1.13;;;0.90;;
7493;SDS011;3788;49.902;8.590;2023-04-01T16:40:57;1.23;;;1.00;;
7493;SDS011;3788;49.902;8.590;2023-04-01T16:43:35;0.57;;;0.57;;
7493;SDS011;3788;49.902;8.590;2023-04-01T16:46:20;0.50;;;0.50;;
7493;SDS011;3788;49.902;8.590;2023-04-01T16:48:59;0.70;;;0.70;;
7493;SDS011;3788;49.902;8.590;2023-04-01T16:51:37;1.07;;;0.50;;
7493;SDS011;3788;49.902;8.590;2023-04-01T16:54:12;0.60;;;0.60;;
7493;SDS011;3788;49.902;8.590;2023-04-01T16:56:47;0.70;;;0.70;;
7493;SDS011;3788;49.902;8.590;2023-04-01T16:59:18;0.87;;;0.80;;
7493;SDS011;3788;49.902;8.590;2023-04-01T17:01:52;0.80;;;0.63;;
7493;SDS011;3788;49.902;8.590;2023-04-01T17:04:24;2.37;;;0.70;;
7493;SDS011;3788;49.902;8.590;2023-04-01T17:07:01;1.20;;;0.70;;
7493;SDS011;3788;49.902;8.590;2023-04-01T17:09:38;0.82;;;0.50;;
7493;SDS011;3788;49.902;8.590;2023-04-01T17:12:22;1.33;;;0.90;;
7493;SDS011;3788;49.902;8.590;2023-04-01T17:14:54;1.00;;;0.90;;
7493;SDS011;3788;49.902;8.590;2023-04-01T17:17:32;2.43;;;0.70;;
7493;SDS011;3788;49.902;8.590;2023-04-01T17:20:08;1.23;;;1.10;;
7493;SDS011;3788;49.902;8.590;2023-04-01T17:22:44;0.80;;;0.80;;
7493;SDS011;3788;49.902;8.590;2023-04-01T17:25:27;1.23;;;0.70;;
7493;SDS011;3788;49.902;8.590;2023-04-01T17:28:08;0.80;;;0.80;;